Time;durP1;ratioP1;P1;durP2;ratioP2;P2;SDS_P1;SDS_P2;PMS_P1;PMS_P2;Temp;Humidity;BMP_temperature;BMP_pressure;BME280_temperature;BME280_humidity;BME280_pressure;Samples;Min_cycle;Max_cycle;Signal;HPM_P1;HPM_P2
2022/05/10 00:01:47;;;;;;;5.10;4.20;;;17.70;99.90;;;;;;5033340;28;21003;-68
2022/05/10 00:04:14;;;;;;;5.10;4.20;;;17.70;99.90;;;;;;5033000;28;20443;-68
2022/05/10 00:06:47;;;;;;;6.33;4.73;;;17.60;99.90;;;;;;5033065;28;20434;-68
2022/05/10 00:09:16;;;;;;;6.50;5.23;;;17.70;99.90;;;;;;5032782;28;20443;-68
2022/05/10 00:11:46;;;;;;;6.20;5.03;;;17.60;99.90;;;;;;5032942;28;20936;-68
2022/05/10 00:14:15;;;;;;;7.17;4.93;;;17.60;99.90;;;;;;5032868;28;20455;-68
2022/05/10 00:16:44;;;;;;;6.50;4.63;;;17.60;99.90;;;;;;5032159;28;20823;-68
2022/05/10 00:19:20;;;;;;;8.60;5.60;;;17.60;99.90;;;;;;5032948;28;20959;-68
2022/05/10 00:21:48;;;;;;;6.57;5.20;;;17.60;99.90;;;;;;5032551;28;20802;-68
2022/05/10 00:24:18;;;;;;;6.07;4.97;;;17.60;99.90;;;;;;5032622;28;20534;-68
2022/05/10 00:26:52;;;;;;;6.63;4.90;;;17.60;99.90;;;;;;5031355;28;20443;-68
2022/05/10 00:29:20;;;;;;;7.20;4.70;;;17.60;99.90;;;;;;5032682;28;20451;-68
2022/05/10 00:31:46;;;;;;;6.40;4.73;;;17.60;99.90;;;;;;5033762;28;20931;-68
2022/05/10 00:34:22;;;;;;;9.90;5.20;;;17.60;99.90;;;;;;5032748;28;20440;-68
2022/05/10 00:36:48;;;;;;;5.60;4.43;;;17.50;99.90;;;;;;5032441;28;20238;-68
2022/05/10 00:39:15;;;;;;;8.30;5.10;;;17.50;99.90;;;;;;5032228;28;20501;-68
2022/05/10 00:41:55;;;;;;;6.53;4.90;;;17.50;99.90;;;;;;5033766;28;20415;-68
2022/05/10 00:44:31;;;;;;;7.60;5.13;;;17.60;99.90;;;;;;5032608;28;21054;-68
2022/05/10 00:47:22;;;;;;;6.17;4.60;;;17.50;99.90;;;;;;5032460;28;20416;-69
2022/05/10 00:50:17;;;;;;;9.37;5.40;;;17.50;99.90;;;;;;5032322;28;20449;-69
2022/05/10 00:53:08;;;;;;;9.60;5.40;;;17.50;99.90;;;;;;5033792;28;20747;-69
2022/05/10 00:55:47;;;;;;;7.00;5.73;;;17.50;99.90;;;;;;5032024;28;20451;-69
2022/05/10 00:58:20;;;;;;;6.80;5.13;;;17.50;99.90;;;;;;5033765;28;20466;-69
2022/05/10 01:00:51;;;;;;;6.80;5.70;;;17.50;99.90;;;;;;5032462;28;20455;-68
2022/05/10 01:03:31;;;;;;;6.00;5.43;;;17.50;99.90;;;;;;5032218;28;20419;-68
2022/05/10 01:06:11;;;;;;;7.33;5.70;;;17.50;99.90;;;;;;5033926;28;20439;-68
2022/05/10 01:09:02;;;;;;;7.30;5.50;;;17.50;99.90;;;;;;5032319;28;20782;-68
2022/05/10 01:11:56;;;;;;;6.97;5.00;;;17.40;99.90;;;;;;5032151;28;20416;-68
2022/05/10 01:14:43;;;;;;;7.10;5.07;;;17.40;99.90;;;;;;5026300;28;20447;-68
2022/05/10 01:17:10;;;;;;;7.20;5.50;;;17.40;99.90;;;;;;5031907;28;20468;-68
2022/05/10 01:19:37;;;;;;;6.57;5.33;;;17.40;99.90;;;;;;5032005;28;20447;-68
2022/05/10 01:22:31;;;;;;;8.27;5.90;;;17.40;99.90;;;;;;5032085;28;20434;-68
2022/05/10 01:25:43;;;;;;;8.30;5.60;;;17.40;99.90;;;;;;5031976;28;20531;-68
2022/05/10 01:28:30;;;;;;;9.47;5.60;;;17.40;99.90;;;;;;5014804;28;20440;-69
2022/05/10 01:31:02;;;;;;;7.97;5.57;;;17.40;99.90;;;;;;5028885;28;20456;-68
2022/05/10 01:33:53;;;;;;;8.30;6.00;;;17.40;99.90;;;;;;5028642;28;20420;-68
2022/05/10 01:36:34;;;;;;;8.30;5.80;;;17.50;99.90;;;;;;5028548;28;20491;-68
2022/05/10 01:39:21;;;;;;;8.13;5.63;;;17.50;99.90;;;;;;5028944;28;20505;-68
2022/05/10 01:42:10;;;;;;;10.07;6.00;;;17.50;99.90;;;;;;5028501;28;20926;-68
2022/05/10 01:44:53;;;;;;;7.40;5.70;;;17.50;99.90;;;;;;5028801;28;20453;-68
2022/05/10 01:47:26;;;;;;;7.87;6.10;;;17.50;99.90;;;;;;5028667;28;20417;-69
2022/05/10 01:50:14;;;;;;;7.33;6.10;;;17.50;99.90;;;;;;5028752;28;20444;-68
2022/05/10 01:52:56;;;;;;;6.80;4.93;;;17.50;99.90;;;;;;5028126;28;20421;-68
2022/05/10 01:55:29;;;;;;;10.63;6.90;;;17.50;99.90;;;;;;5028377;28;20506;-68
2022/05/10 01:58:00;;;;;;;7.17;5.60;;;17.50;99.90;;;;;;5028343;28;20471;-69
2022/05/10 02:00:27;;;;;;;9.80;6.50;;;17.50;99.90;;;;;;5029721;28;20479;-68
2022/05/10 02:03:06;;;;;;;7.80;6.60;;;17.50;99.90;;;;;;5032064;28;20765;-68
2022/05/10 02:05:45;;;;;;;8.83;6.10;;;17.50;99.90;;;;;;5032343;28;20531;-69
2022/05/10 02:08:21;;;;;;;7.03;5.63;;;17.50;99.90;;;;;;5032522;28;20813;-68
2022/05/10 02:10:51;;;;;;;8.30;6.10;;;17.50;99.90;;;;;;5031979;28;20847;-68
2022/05/10 02:13:29;;;;;;;8.37;6.63;;;17.50;99.90;;;;;;5032011;28;20961;-68
2022/05/10 02:16:08;;;;;;;7.83;6.00;;;17.50;99.90;;;;;;5016390;28;20582;-68
2022/05/10 02:18:45;;;;;;;6.30;5.20;;;17.50;99.90;;;;;;5031919;28;20937;-68
2022/05/10 02:21:21;;;;;;;7.77;6.63;;;17.50;99.90;;;;;;5031901;28;20894;-68
2022/05/10 02:24:00;;;;;;;7.90;6.40;;;17.50;99.90;;;;;;5031502;28;20503;-69
2022/05/10 02:26:43;;;;;;;7.63;6.27;;;17.50;99.90;;;;;;5034625;28;20455;-68
2022/05/10 02:29:27;;;;;;;7.47;6.40;;;17.50;99.90;;;;;;5034643;28;20825;-68
2022/05/10 02:34:50;;;;;;;7.50;6.20;;;17.50;99.90;;;;;;5036468;28;20486;-68
2022/05/10 02:37:16;;;;;;;7.27;6.40;;;17.50;99.90;;;;;;5034448;28;20480;-68
2022/05/10 02:39:43;;;;;;;7.50;6.03;;;17.50;99.90;;;;;;5036150;28;20925;-68
2022/05/10 02:42:14;;;;;;;7.00;5.57;;;17.50;99.90;;;;;;5034336;28;20928;-68
2022/05/10 02:44:44;;;;;;;10.20;6.33;;;17.50;99.90;;;;;;5034256;28;20474;-68
2022/05/10 02:47:10;;;;;;;6.77;6.00;;;17.50;99.90;;;;;;5034223;28;20453;-68
2022/05/10 02:49:40;;;;;;;6.53;5.33;;;17.50;99.90;;;;;;5033548;28;20457;-68
2022/05/10 02:52:06;;;;;;;9.37;5.93;;;17.50;99.90;;;;;;5034550;28;20420;-68
2022/05/10 02:54:33;;;;;;;8.07;6.20;;;17.50;99.90;;;;;;5034326;28;20463;-68
2022/05/10 02:57:06;;;;;;;7.60;6.27;;;17.50;99.90;;;;;;5034316;28;20685;-68
2022/05/10 02:59:35;;;;;;;8.83;6.27;;;17.50;99.90;;;;;;5034194;28;20798;-68
2022/05/10 03:02:12;;;;;;;8.40;6.33;;;17.50;99.90;;;;;;5034235;28;20416;-68
2022/05/10 03:04:52;;;;;;;7.33;6.00;;;17.50;99.90;;;;;;5034345;28;20468;-68
2022/05/10 03:07:29;;;;;;;9.17;6.50;;;17.50;99.90;;;;;;5034178;28;20412;-68
2022/05/10 03:09:57;;;;;;;9.07;7.40;;;17.50;99.90;;;;;;5033816;28;20843;-68
2022/05/10 03:12:26;;;;;;;12.57;9.50;;;17.40;99.90;;;;;;5034345;28;20441;-69
2022/05/10 03:15:00;;;;;;;12.00;9.40;;;17.40;99.90;;;;;;5033951;28;20470;-68
2022/05/10 03:17:29;;;;;;;15.67;13.93;;;17.50;99.90;;;;;;5033858;28;20522;-68
2022/05/10 03:19:55;;;;;;;16.27;13.20;;;17.50;99.90;;;;;;5034003;28;20451;-68
2022/05/10 03:22:23;;;;;;;11.03;7.90;;;17.50;99.90;;;;;;5034047;28;20818;-68
2022/05/10 03:24:49;;;;;;;7.00;5.93;;;17.50;99.90;;;;;;5033678;28;20518;-68
2022/05/10 03:27:20;;;;;;;5.90;5.30;;;17.60;99.90;;;;;;5033652;28;20913;-68
2022/05/10 03:29:49;;;;;;;6.90;5.20;;;17.60;99.90;;;;;;5034854;28;20438;-68
2022/05/10 03:32:19;;;;;;;8.90;6.03;;;17.60;99.90;;;;;;5033814;28;20416;-68
2022/05/10 03:34:59;;;;;;;6.13;5.37;;;17.60;99.90;;;;;;5033565;28;20995;-68
2022/05/10 03:37:30;;;;;;;8.03;6.90;;;17.60;99.90;;;;;;5033807;28;20475;-68
2022/05/10 03:39:56;;;;;;;10.03;6.43;;;17.70;99.90;;;;;;5033980;28;20447;-68
2022/05/10 03:42:24;;;;;;;9.77;5.50;;;17.70;99.90;;;;;;5033389;28;20486;-68
2022/05/10 03:44:56;;;;;;;7.87;6.07;;;17.70;99.90;;;;;;5034857;28;20765;-68
2022/05/10 03:47:26;;;;;;;6.47;5.03;;;17.70;99.90;;;;;;5033762;28;20423;-68
2022/05/10 03:49:56;;;;;;;8.47;5.63;;;17.70;99.90;;;;;;5034241;28;20518;-68
2022/05/10 03:52:23;;;;;;;7.43;5.63;;;17.80;99.90;;;;;;5033084;28;20460;-68
2022/05/10 03:54:49;;;;;;;31.57;15.83;;;17.80;99.90;;;;;;5032762;28;20451;-68
2022/05/10 03:57:15;;;;;;;12.97;9.27;;;17.80;99.90;;;;;;5032916;28;20478;-68
2022/05/10 03:59:43;;;;;;;7.80;5.50;;;17.80;99.90;;;;;;5033067;28;20203;-68
2022/05/10 04:02:11;;;;;;;6.63;5.93;;;17.80;99.90;;;;;;5033187;28;20420;-68
2022/05/10 04:04:37;;;;;;;8.63;5.67;;;17.90;99.90;;;;;;5033034;28;20447;-68
2022/05/10 04:07:04;;;;;;;6.13;5.10;;;17.90;99.90;;;;;;5032814;28;20419;-68
2022/05/10 04:09:30;;;;;;;6.27;5.20;;;17.90;99.90;;;;;;5032701;28;20841;-68
2022/05/10 04:11:57;;;;;;;6.30;5.70;;;17.80;99.90;;;;;;5032754;28;20458;-69
2022/05/10 04:14:25;;;;;;;5.73;5.03;;;17.90;99.90;;;;;;5032645;28;20513;-68
2022/05/10 04:17:15;;;;;;;5.20;4.70;;;17.90;99.90;;;;;;5032804;28;20479;-68
2022/05/10 04:19:41;;;;;;;6.03;5.40;;;17.90;99.90;;;;;;5032299;28;20446;-68
2022/05/10 04:22:07;;;;;;;7.03;5.20;;;17.90;99.90;;;;;;5032447;28;20416;-67
2022/05/10 04:24:34;;;;;;;7.60;5.23;;;17.90;99.90;;;;;;5031914;28;21020;-69
2022/05/10 04:27:00;;;;;;;7.43;5.70;;;17.90;99.90;;;;;;5032273;28;20182;-68
2022/05/10 04:29:28;;;;;;;6.77;5.33;;;17.90;99.90;;;;;;5032240;28;21023;-69
2022/05/10 04:31:54;;;;;;;5.40;4.90;;;17.90;99.90;;;;;;5033900;28;20400;-68
2022/05/10 04:34:20;;;;;;;6.60;5.37;;;17.90;99.90;;;;;;5032380;28;20971;-67
2022/05/10 04:36:49;;;;;;;6.90;5.37;;;17.90;99.90;;;;;;5032381;28;20511;-67
2022/05/10 04:39:15;;;;;;;8.47;6.03;;;17.90;99.90;;;;;;5032258;28;20205;-68
2022/05/10 04:41:53;;;;;;;6.37;4.70;;;17.90;99.90;;;;;;5032291;28;20431;-66
2022/05/10 04:44:19;;;;;;;8.07;6.00;;;17.90;99.90;;;;;;5032329;28;20498;-66
2022/05/10 04:46:47;;;;;;;6.43;5.57;;;18.00;99.90;;;;;;5032394;28;20412;-66
2022/05/10 04:49:14;;;;;;;6.27;5.00;;;18.00;99.90;;;;;;5032313;28;20577;-67
2022/05/10 04:51:53;;;;;;;5.17;4.47;;;18.00;99.90;;;;;;5032301;28;20431;-70
2022/05/10 04:54:22;;;;;;;6.60;5.90;;;18.10;99.90;;;;;;5033452;28;20838;-68
2022/05/10 04:56:49;;;;;;;5.33;4.83;;;18.00;99.90;;;;;;5032077;28;20475;-68
2022/05/10 04:59:15;;;;;;;7.20;5.53;;;18.10;99.90;;;;;;5029083;28;20198;-69
2022/05/10 05:01:41;;;;;;;7.53;5.33;;;18.10;99.90;;;;;;5030694;28;20784;-68
2022/05/10 05:04:10;;;;;;;9.17;4.93;;;18.10;99.90;;;;;;5030990;28;20455;-68
2022/05/10 05:06:39;;;;;;;6.80;5.10;;;18.10;99.90;;;;;;5032044;28;20423;-67
2022/05/10 05:09:15;;;;;;;5.40;4.90;;;18.10;99.90;;;;;;5032123;28;20444;-67
2022/05/10 05:11:42;;;;;;;5.27;4.77;;;18.20;99.90;;;;;;5032818;28;20929;-67
2022/05/10 05:14:10;;;;;;;21.93;13.30;;;18.20;99.90;;;;;;5031448;28;20579;-68
2022/05/10 05:16:36;;;;;;;6.50;5.00;;;18.20;99.90;;;;;;5031853;28;20218;-68
2022/05/10 05:19:02;;;;;;;5.80;5.07;;;18.20;99.90;;;;;;5030105;28;20436;-68
2022/05/10 05:21:32;;;;;;;8.83;5.37;;;18.30;99.90;;;;;;5012304;28;20416;-68
2022/05/10 05:24:05;;;;;;;5.60;4.30;;;18.30;99.90;;;;;;5029186;28;20535;-69
2022/05/10 05:26:32;;;;;;;5.20;4.70;;;18.30;99.90;;;;;;5024375;28;20516;-68
2022/05/10 05:28:58;;;;;;;4.80;4.40;;;18.30;99.90;;;;;;5016717;28;20472;-70
2022/05/10 05:31:25;;;;;;;6.10;4.50;;;18.30;99.90;;;;;;5029242;28;20515;-68
2022/05/10 05:33:54;;;;;;;8.80;5.67;;;18.30;99.90;;;;;;5027432;28;20431;-70
2022/05/10 05:36:20;;;;;;;6.57;4.97;;;18.30;99.90;;;;;;5031739;28;20431;-68
2022/05/10 05:38:53;;;;;;;7.93;5.40;;;18.30;99.90;;;;;;5033488;28;20778;-67
2022/05/10 05:41:20;;;;;;;6.53;5.53;;;18.30;99.90;;;;;;5032702;28;20983;-68
2022/05/10 05:43:51;;;;;;;6.37;5.37;;;18.20;99.90;;;;;;5026297;28;20935;-75
2022/05/10 05:46:57;;;;;;;6.83;5.63;;;18.30;99.90;;;;;;5033977;28;20431;-67
2022/05/10 05:49:41;;;;;;;8.60;5.00;;;18.30;99.90;;;;;;5017561;28;20924;-76
2022/05/10 05:52:11;;;;;;;8.23;5.33;;;18.30;99.90;;;;;;5024120;28;20478;-68
2022/05/10 05:54:43;;;;;;;8.17;6.10;;;18.40;99.90;;;;;;5032050;28;20459;-76
2022/05/10 05:57:23;;;;;;;6.83;5.47;;;18.50;99.90;;;;;;5028631;28;20480;-68
2022/05/10 06:00:09;;;;;;;8.00;6.07;;;18.60;99.90;;;;;;5018850;28;20449;-76
2022/05/10 06:03:05;;;;;;;7.27;5.63;;;18.70;99.90;;;;;;5014432;28;20506;-68
2022/05/10 06:05:42;;;;;;;6.03;5.00;;;18.80;99.90;;;;;;5015936;28;20535;-68
2022/05/10 06:08:11;;;;;;;6.50;4.87;;;18.90;99.90;;;;;;5013259;28;20770;-76
2022/05/10 06:10:37;;;;;;;5.70;4.87;;;19.00;99.90;;;;;;5027352;28;20969;-68
2022/05/10 06:13:05;;;;;;;7.10;5.53;;;19.20;99.90;;;;;;5031482;28;20413;-77
2022/05/10 06:15:35;;;;;;;7.97;5.00;;;19.30;99.90;;;;;;5031430;28;20548;-68
2022/05/10 06:18:04;;;;;;;6.67;5.57;;;19.40;99.90;;;;;;5030213;28;20482;-68
2022/05/10 06:20:31;;;;;;;5.40;4.60;;;19.50;99.90;;;;;;5025735;28;20854;-76
2022/05/10 06:23:01;;;;;;;7.50;5.97;;;19.60;99.90;;;;;;5011806;28;20435;-68
2022/05/10 06:25:35;;;;;;;5.73;4.80;;;19.80;99.90;;;;;;5021092;28;20516;-68
2022/05/10 06:28:02;;;;;;;6.70;5.00;;;19.80;99.90;;;;;;5024513;28;20448;-68
2022/05/10 06:30:29;;;;;;;5.33;4.63;;;20.00;99.90;;;;;;5037261;28;20468;-68
2022/05/10 06:32:58;;;;;;;8.30;5.47;;;20.00;99.90;;;;;;5032011;28;20797;-68
2022/05/10 06:35:25;;;;;;;5.50;5.00;;;20.10;99.90;;;;;;5032366;28;20997;-68
2022/05/10 06:38:34;;;;;;;5.60;5.03;;;20.10;99.90;;;;;;5031545;28;20576;-76
2022/05/10 06:40:41;;;;;;;6.77;4.63;;;20.20;99.90;;;;;;5028567;28;21027;-77
2022/05/10 06:43:09;;;;;;;6.20;5.27;;;20.20;99.90;;;;;;5031686;28;20418;-76
2022/05/10 06:45:37;;;;;;;7.30;5.97;;;20.20;99.90;;;;;;5029721;28;20548;-76
2022/05/10 06:48:06;;;;;;;7.00;5.27;;;20.20;99.90;;;;;;5020138;28;20826;-68
2022/05/10 06:50:33;;;;;;;7.10;5.20;;;20.20;99.90;;;;;;5026852;28;20466;-75
2022/05/10 06:53:00;;;;;;;7.03;5.70;;;20.20;99.90;;;;;;5034118;28;20472;-68
2022/05/10 06:55:28;;;;;;;7.00;5.30;;;20.20;99.90;;;;;;5034249;28;20501;-76
2022/05/10 06:57:55;;;;;;;9.40;5.90;;;20.20;99.90;;;;;;5032577;28;20568;-68
2022/05/10 07:00:23;;;;;;;8.30;6.07;;;20.20;99.90;;;;;;5032429;28;21048;-78
2022/05/10 07:02:50;;;;;;;7.53;5.73;;;20.10;99.90;;;;;;5035303;28;20464;-76
2022/05/10 07:05:33;;;;;;;5.83;5.27;;;20.10;99.90;;;;;;5022389;28;20461;-68
2022/05/10 07:08:03;;;;;;;5.33;4.77;;;20.10;99.90;;;;;;5028741;28;20861;-77
2022/05/10 07:10:34;;;;;;;7.20;5.40;;;20.10;99.90;;;;;;5035029;28;20595;-67
2022/05/10 07:13:19;;;;;;;8.80;5.60;;;20.10;99.90;;;;;;5031150;28;20524;-67
2022/05/10 07:15:59;;;;;;;5.77;5.10;;;20.00;99.90;;;;;;5028510;28;20481;-67
2022/05/10 07:18:38;;;;;;;7.90;5.43;;;20.00;99.90;;;;;;5027000;28;20466;-67
2022/05/10 07:21:22;;;;;;;6.77;5.50;;;20.00;99.90;;;;;;5029217;28;20449;-75
2022/05/10 07:23:51;;;;;;;6.90;5.50;;;20.00;99.90;;;;;;5027200;28;21061;-75
2022/05/10 07:26:23;;;;;;;6.43;4.97;;;20.00;99.90;;;;;;5028579;28;20475;-67
2022/05/10 07:28:50;;;;;;;6.00;5.40;;;20.00;99.90;;;;;;5020181;28;20422;-76
2022/05/10 07:31:16;;;;;;;7.23;5.47;;;20.10;99.90;;;;;;5008475;28;20423;-75
2022/05/10 07:33:42;;;;;;;5.10;4.60;;;20.10;99.90;;;;;;5024290;28;20423;-67
2022/05/10 07:36:23;;;;;;;8.30;5.67;;;20.20;99.90;;;;;;5024599;28;20760;-67
2022/05/10 07:38:51;;;;;;;6.53;5.07;;;20.20;99.90;;;;;;5022987;28;20429;-75
2022/05/10 07:41:21;;;;;;;6.97;5.67;;;20.40;99.90;;;;;;5029072;28;20436;-67
2022/05/10 07:43:50;;;;;;;6.53;5.40;;;20.50;99.90;;;;;;5024989;28;20460;-75
2022/05/10 07:46:17;;;;;;;6.70;5.60;;;20.60;99.90;;;;;;5028538;28;20434;-75
2022/05/10 07:48:44;;;;;;;6.63;5.20;;;20.70;99.90;;;;;;5014093;28;20436;-75
2022/05/10 07:51:11;;;;;;;7.47;5.50;;;20.80;99.90;;;;;;5034926;28;20443;-75
2022/05/10 07:54:05;;;;;;;8.53;5.33;;;20.90;99.90;;;;;;5030482;28;20435;-75
2022/05/10 07:56:32;;;;;;;6.20;4.97;;;21.00;99.90;;;;;;5019824;28;20537;-76
2022/05/10 07:59:03;;;;;;;6.20;5.07;;;21.20;99.90;;;;;;5014887;28;20508;-76
2022/05/10 08:01:29;;;;;;;6.20;5.37;;;21.20;99.90;;;;;;5031703;28;20433;-75
2022/05/10 08:03:56;;;;;;;6.33;5.63;;;21.30;99.90;;;;;;5031016;28;20420;-75
2022/05/10 08:06:30;;;;;;;6.33;5.40;;;21.30;99.90;;;;;;5031014;28;20454;-75
2022/05/10 08:09:05;;;;;;;5.73;5.10;;;21.30;99.90;;;;;;5028011;28;20521;-72
2022/05/10 08:11:32;;;;;;;10.90;6.00;;;21.40;99.90;;;;;;5029564;28;20459;-76
2022/05/10 08:13:58;;;;;;;8.33;5.13;;;21.30;99.90;;;;;;5028679;28;20443;-75
2022/05/10 08:16:34;;;;;;;5.73;5.23;;;21.30;99.90;;;;;;5030665;28;20518;-67
2022/05/10 08:19:08;;;;;;;6.93;5.27;;;21.30;99.90;;;;;;5030350;28;20466;-68
2022/05/10 08:21:36;;;;;;;6.70;4.93;;;21.30;99.90;;;;;;5029428;28;20481;-75
2022/05/10 08:24:05;;;;;;;6.43;5.33;;;21.30;99.90;;;;;;5029514;28;20490;-75
2022/05/10 08:26:36;;;;;;;6.50;4.70;;;21.20;99.90;;;;;;5029578;28;20238;-67
2022/05/10 08:29:04;;;;;;;6.13;5.17;;;21.20;99.90;;;;;;5030198;28;20432;-69
2022/05/10 08:31:31;;;;;;;6.77;4.87;;;21.20;99.90;;;;;;5026343;28;20506;-76
2022/05/10 08:33:57;;;;;;;5.37;4.50;;;21.10;99.90;;;;;;5021713;28;20439;-67
2022/05/10 08:36:23;;;;;;;5.73;4.87;;;21.10;99.90;;;;;;5025846;28;20986;-68
2022/05/10 08:38:54;;;;;;;5.77;4.80;;;21.10;99.90;;;;;;5018589;28;20193;-76
2022/05/10 08:41:30;;;;;;;5.60;5.03;;;21.10;99.90;;;;;;5009420;28;20445;-68
2022/05/10 08:44:12;;;;;;;7.37;4.30;;;21.10;99.90;;;;;;5013120;28;20438;-75
2022/05/10 08:46:46;;;;;;;5.77;4.53;;;21.10;99.90;;;;;;5038154;28;20424;-75
2022/05/10 08:49:26;;;;;;;4.93;4.43;;;21.10;99.90;;;;;;5026419;28;20901;-75
2022/05/10 08:51:58;;;;;;;6.20;5.10;;;21.10;99.90;;;;;;5030366;28;20526;-74
2022/05/10 08:54:30;;;;;;;5.93;4.60;;;21.10;99.90;;;;;;5027912;28;20455;-75
2022/05/10 08:57:26;;;;;;;5.17;4.67;;;21.10;99.90;;;;;;5022256;28;20479;-67
2022/05/10 09:00:01;;;;;;;4.13;3.73;;;21.10;99.90;;;;;;5030283;28;20477;-75
2022/05/10 09:02:34;;;;;;;4.50;3.80;;;21.10;99.90;;;;;;5029874;28;20482;-67
2022/05/10 09:05:14;;;;;;;4.40;3.70;;;21.20;99.90;;;;;;5026198;28;20784;-67
2022/05/10 09:08:04;;;;;;;4.30;3.90;;;21.20;99.90;;;;;;5028378;28;20431;-75
2022/05/10 09:10:37;;;;;;;4.63;3.60;;;21.20;99.90;;;;;;5026023;28;20857;-75
2022/05/10 09:13:11;;;;;;;5.50;3.90;;;21.30;99.90;;;;;;5033176;28;20861;-67
2022/05/10 09:15:40;;;;;;;5.50;3.60;;;21.30;99.90;;;;;;5031420;28;20518;-67
2022/05/10 09:18:23;;;;;;;5.37;4.83;;;21.30;99.90;;;;;;5026567;28;20536;-75
2022/05/10 09:20:58;;;;;;;4.63;3.73;;;21.40;99.90;;;;;;5032838;28;20439;-69
2022/05/10 09:24:02;;;;;;;4.40;4.00;;;21.40;99.90;;;;;;5033186;28;20435;-72
2022/05/10 09:27:03;;;;;;;4.53;3.67;;;21.50;99.90;;;;;;4955515;28;20524;-67
2022/05/10 09:29:48;;;;;;;4.60;4.20;;;21.50;99.90;;;;;;4968691;28;20476;-75
2022/05/10 09:35:22;;;;;;;6.80;4.57;;;21.50;99.90;;;;;;5024637;28;20471;-74
2022/05/10 09:37:48;;;;;;;5.50;4.50;;;21.60;99.90;;;;;;5025826;28;21245;-67
2022/05/10 09:40:23;;;;;;;4.23;3.70;;;21.60;99.90;;;;;;5035798;28;20505;-67
2022/05/10 09:42:52;;;;;;;4.77;4.37;;;21.70;99.90;;;;;;5027796;28;20439;-67
2022/05/10 09:46:09;;;;;;;4.57;4.10;;;21.70;99.90;;;;;;5034341;28;20444;-67
2022/05/10 09:49:06;;;;;;;6.07;3.73;;;21.80;99.90;;;;;;5028488;28;20530;-67
2022/05/10 09:51:43;;;;;;;4.57;3.60;;;21.90;99.90;;;;;;5022092;28;20428;-68
2022/05/10 09:54:16;;;;;;;4.10;3.70;;;22.10;99.90;;;;;;5037611;28;20462;-67
2022/05/10 09:56:44;;;;;;;4.10;3.27;;;22.10;99.90;;;;;;5026148;28;20474;-76
2022/05/10 09:59:12;;;;;;;4.33;3.70;;;22.30;99.90;;;;;;5029577;28;21008;-75
2022/05/10 10:01:45;;;;;;;4.50;3.77;;;22.40;99.90;;;;;;5026867;28;20915;-75
2022/05/10 10:04:23;;;;;;;3.20;3.00;;;22.50;99.90;;;;;;5027556;28;20203;-76
2022/05/10 10:07:04;;;;;;;4.83;3.47;;;22.70;99.90;;;;;;5028535;28;20424;-76
2022/05/10 10:09:32;;;;;;;4.70;3.63;;;22.70;99.90;;;;;;5028759;28;20463;-67
2022/05/10 10:12:09;;;;;;;3.80;3.50;;;22.80;99.90;;;;;;5029553;28;20493;-76
2022/05/10 10:14:45;;;;;;;4.73;3.60;;;22.90;99.90;;;;;;5025852;28;20452;-77
2022/05/10 10:17:38;;;;;;;5.13;3.70;;;22.90;99.90;;;;;;5026358;28;20532;-77
2022/05/10 10:20:54;;;;;;;4.77;4.20;;;23.00;99.90;;;;;;5024815;28;20561;-77
2022/05/10 10:23:48;;;;;;;4.10;3.67;;;23.10;99.90;;;;;;5014141;28;20442;-77
2022/05/10 10:26:23;;;;;;;7.93;4.10;;;23.10;99.90;;;;;;5028951;28;20466;-77
2022/05/10 10:29:07;;;;;;;4.60;3.53;;;23.20;99.90;;;;;;5028119;28;20579;-68
2022/05/10 10:31:38;;;;;;;3.73;3.30;;;23.30;99.90;;;;;;5027913;28;21003;-68
2022/05/10 10:34:12;;;;;;;4.43;3.90;;;23.40;99.90;;;;;;5031253;28;20825;-69
2022/05/10 10:36:56;;;;;;;4.10;3.70;;;23.50;99.90;;;;;;5030908;28;20583;-68
2022/05/10 10:39:33;;;;;;;3.67;3.37;;;23.50;99.90;;;;;;5029752;28;20457;-69
2022/05/10 10:42:12;;;;;;;3.67;3.33;;;23.60;99.90;;;;;;5028112;28;20498;-76
2022/05/10 10:44:43;;;;;;;4.83;4.10;;;23.70;99.90;;;;;;5022758;28;20459;-76
2022/05/10 10:47:20;;;;;;;3.77;3.47;;;23.70;99.90;;;;;;5026268;28;20452;-76
2022/05/10 10:50:13;;;;;;;4.70;3.17;;;23.80;99.90;;;;;;5027782;28;20453;-69
2022/05/10 10:52:39;;;;;;;5.00;3.20;;;23.80;99.90;;;;;;5030657;28;20449;-77
2022/05/10 10:55:07;;;;;;;3.90;3.33;;;23.90;99.90;;;;;;5031782;28;21016;-68
2022/05/10 10:57:58;;;;;;;4.60;4.20;;;24.00;99.90;;;;;;5025789;28;20470;-68
2022/05/10 11:00:53;;;;;;;4.03;3.63;;;24.10;99.90;;;;;;5024191;28;20938;-69
2022/05/10 11:03:54;;;;;;;3.93;3.50;;;24.10;99.90;;;;;;5024164;28;20773;-68
2022/05/10 11:06:28;;;;;;;4.27;3.83;;;24.20;99.90;;;;;;5013955;28;20452;-66
2022/05/10 11:08:57;;;;;;;3.53;3.00;;;24.20;99.90;;;;;;5026918;28;20443;-67
2022/05/10 11:11:55;;;;;;;4.43;3.30;;;24.20;99.90;;;;;;5029618;28;20913;-75
2022/05/10 11:14:56;;;;;;;3.23;2.93;;;24.30;99.90;;;;;;5014552;28;20449;-76
2022/05/10 11:17:30;;;;;;;2.80;2.57;;;24.30;99.90;;;;;;5030787;28;20462;-67
2022/05/10 11:20:10;;;;;;;4.77;3.40;;;24.30;99.90;;;;;;5027839;28;20832;-67
2022/05/10 11:23:04;;;;;;;3.30;3.00;;;24.40;99.90;;;;;;5044962;28;20865;-68
2022/05/10 11:26:01;;;;;;;3.27;2.90;;;24.50;99.00;;;;;;5021927;28;20843;-74
2022/05/10 11:28:48;;;;;;;2.90;2.70;;;24.50;98.90;;;;;;4993894;28;20544;-68
2022/05/10 11:31:33;;;;;;;3.13;2.83;;;24.50;98.80;;;;;;5027307;28;20500;-75
2022/05/10 11:34:21;;;;;;;3.20;2.90;;;24.50;99.30;;;;;;5024597;28;20542;-67
2022/05/10 11:36:59;;;;;;;2.90;2.70;;;24.50;99.30;;;;;;5025977;28;20509;-75
2022/05/10 11:39:38;;;;;;;3.03;2.73;;;24.50;98.30;;;;;;5027032;28;20454;-75
2022/05/10 11:42:24;;;;;;;5.97;3.17;;;24.50;98.20;;;;;;5022329;28;20436;-68
2022/05/10 11:45:27;;;;;;;3.60;3.27;;;24.60;97.80;;;;;;5025839;28;20880;-76
2022/05/10 11:48:08;;;;;;;4.40;3.33;;;24.60;97.90;;;;;;5043436;28;20526;-68
2022/05/10 11:53:47;;;;;;;5.30;2.90;;;24.70;97.80;;;;;;5025388;28;20434;-69
2022/05/10 11:56:13;;;;;;;3.17;2.87;;;24.80;97.70;;;;;;5025287;28;20450;-68
2022/05/10 11:58:39;;;;;;;4.53;2.70;;;24.90;97.90;;;;;;5023348;28;20485;-68
2022/05/10 12:01:12;;;;;;;3.70;3.40;;;24.90;98.10;;;;;;5023733;28;20963;-76
2022/05/10 12:03:43;;;;;;;3.03;2.80;;;24.90;98.00;;;;;;5027111;28;20927;-76
2022/05/10 12:06:24;;;;;;;2.73;2.53;;;24.90;97.40;;;;;;5023941;28;20798;-67
2022/05/10 12:08:52;;;;;;;4.40;3.17;;;24.90;97.60;;;;;;5030982;28;20517;-67
2022/05/10 12:11:34;;;;;;;3.03;2.70;;;24.90;97.50;;;;;;5033391;28;20518;-77
2022/05/10 12:22:58;;;;;;;4.50;2.97;;;25.00;96.80;;;;;;5032403;28;20454;-68
2022/05/10 12:25:52;;;;;;;2.53;2.33;;;25.00;96.40;;;;;;5027510;28;20482;-68
2022/05/10 12:28:38;;;;;;;3.27;2.97;;;25.10;96.40;;;;;;5029647;28;20507;-76
2022/05/10 12:31:51;;;;;;;3.87;3.47;;;25.20;95.30;;;;;;5029331;28;20479;-77
2022/05/10 12:34:39;;;;;;;4.40;2.47;;;25.30;95.30;;;;;;5023685;28;20815;-68
2022/05/10 12:40:02;;;;;;;3.50;3.20;;;25.20;95.70;;;;;;5031258;28;20800;-75
2022/05/10 12:42:40;;;;;;;2.90;2.70;;;25.10;95.80;;;;;;5028708;28;20786;-68
2022/05/10 12:45:17;;;;;;;3.23;3.00;;;25.10;96.10;;;;;;5031964;28;20591;-68
2022/05/10 12:48:07;;;;;;;4.47;3.00;;;25.00;95.10;;;;;;5027751;28;20433;-68
2022/05/10 12:50:44;;;;;;;3.17;2.97;;;25.00;95.70;;;;;;5028488;28;20517;-68
2022/05/10 12:53:43;;;;;;;3.00;2.80;;;25.00;95.70;;;;;;5025843;28;20457;-76
2022/05/10 12:56:44;;;;;;;4.40;3.40;;;25.00;95.30;;;;;;5016140;28;20439;-67
2022/05/10 12:59:38;;;;;;;3.70;3.40;;;24.90;95.50;;;;;;5024310;28;20504;-67
2022/05/10 13:02:08;;;;;;;3.40;3.10;;;24.90;95.60;;;;;;5027549;28;20443;-67
2022/05/10 13:04:40;;;;;;;3.60;3.30;;;24.80;95.80;;;;;;5013606;28;20513;-75
2022/05/10 13:07:14;;;;;;;3.13;2.90;;;24.80;95.20;;;;;;5025272;28;20433;-75
2022/05/10 13:09:59;;;;;;;2.67;2.47;;;24.80;95.30;;;;;;5027287;28;20465;-67
2022/05/10 13:12:39;;;;;;;3.33;3.03;;;24.80;95.00;;;;;;5028031;28;20442;-68
2022/05/10 13:15:21;;;;;;;3.30;3.00;;;24.70;95.30;;;;;;5008004;28;20455;-67
2022/05/10 13:17:54;;;;;;;2.77;2.57;;;24.70;95.00;;;;;;5025257;28;20863;-75
2022/05/10 13:20:23;;;;;;;4.73;3.00;;;24.70;95.20;;;;;;5025961;28;21006;-68
2022/05/10 13:23:16;;;;;;;3.80;3.13;;;24.70;95.50;;;;;;5020605;28;20437;-70
2022/05/10 13:25:47;;;;;;;3.00;2.80;;;24.70;95.60;;;;;;5029227;28;20474;-68
2022/05/10 13:28:29;;;;;;;2.87;2.67;;;24.70;95.60;;;;;;5021282;28;20526;-68
2022/05/10 13:31:21;;;;;;;3.50;3.20;;;24.60;95.30;;;;;;5028224;28;20474;-69
2022/05/10 13:34:23;;;;;;;4.37;3.57;;;24.60;96.00;;;;;;5044436;28;20915;-69
2022/05/10 13:36:53;;;;;;;3.00;2.80;;;24.60;96.60;;;;;;5019655;28;21078;-70
2022/05/10 13:39:29;;;;;;;4.20;3.80;;;24.50;96.50;;;;;;5032932;28;20477;-70
2022/05/10 13:42:08;;;;;;;3.50;3.20;;;24.40;96.90;;;;;;5029633;28;20483;-68
2022/05/10 13:44:39;;;;;;;5.03;3.03;;;24.40;96.80;;;;;;5032277;28;20467;-69
2022/05/10 13:47:15;;;;;;;3.37;3.07;;;24.40;96.50;;;;;;5043368;28;20426;-71
2022/05/10 13:49:46;;;;;;;3.70;3.40;;;24.40;97.00;;;;;;5031328;28;20493;-71